Terminal Aerodrome Forecast
Issued by NWS Bismarck, ND

Home | Current Version | Previous Version | Text Only | Print | Product List | Glossary Off
Versions: 1 2 3 4 5 6 7 8 9 10 11 12 13 14 15 16

200
FTUS43 KBIS 211720
TAFISN
TAF
KISN 211720Z 2118/2218 28008KT P6SM SKC
     FM220400 31004KT P6SM SKC
     FM221200 08004KT P6SM BKN250
     FM221600 10009KT P6SM SCT080 BKN150=

USA.gov is the U.S. government's official web portal to all federal, state and local government web resources and services.